Time;durP1;ratioP1;P1;durP2;ratioP2;P2;SDS_P1;SDS_P2;PMS_P1;PMS_P2;Temp;Humidity;BMP_temperature;BMP_pressure;BME280_temperature;BME280_humidity;BME280_pressure;Samples;Min_cycle;Max_cycle;Signal;HPM_P1;HPM_P2
2022/03/08 00:02:22;;;;;;;9.90;3.25;;;;;;;4.46;100.00;99951.56;7396176;19;20011;-48
2022/03/08 00:04:48;;;;;;;3.90;2.55;;;;;;;4.43;100.00;99944.13;7396039;19;20007;-48
2022/03/08 00:07:13;;;;;;;5.15;1.40;;;;;;;4.35;100.00;99951.78;7393988;19;20048;-48
2022/03/08 00:09:39;;;;;;;13.00;3.35;;;;;;;4.41;100.00;99943.78;7394473;19;20455;-47
2022/03/08 00:12:05;;;;;;;5.18;3.20;;;;;;;4.42;100.00;99956.34;7396759;19;20018;-47
2022/03/08 00:14:32;;;;;;;7.63;3.20;;;;;;;4.38;100.00;99931.66;7399352;19;20037;-48
2022/03/08 00:16:57;;;;;;;11.70;3.83;;;;;;;4.44;100.00;99938.19;7395567;19;20467;-48
2022/03/08 00:19:23;;;;;;;13.02;4.60;;;;;;;4.45;100.00;99934.22;7394986;19;20074;-47
2022/03/08 00:21:49;;;;;;;6.00;4.10;;;;;;;4.40;100.00;99932.00;7396205;19;20030;-47
2022/03/08 00:24:18;;;;;;;7.53;3.15;;;;;;;4.39;100.00;99929.66;7393249;19;20030;-49
2022/03/08 00:26:44;;;;;;;7.38;2.53;;;;;;;4.36;100.00;99930.53;7394218;19;20462;-48
2022/03/08 00:29:11;;;;;;;7.20;3.22;;;;;;;4.25;100.00;99925.28;7396681;19;20487;-48
2022/03/08 00:31:37;;;;;;;16.02;3.65;;;;;;;4.29;100.00;99914.16;7395974;19;20023;-48
2022/03/08 00:34:04;;;;;;;4.38;2.47;;;;;;;4.31;100.00;99914.53;7394796;19;20011;-48
2022/03/08 00:36:30;;;;;;;6.97;3.42;;;;;;;4.28;100.00;99907.88;7394887;19;20003;-48
2022/03/08 00:38:56;;;;;;;6.85;1.50;;;;;;;4.21;100.00;99913.56;7393344;19;20018;-48
2022/03/08 00:41:22;;;;;;;6.00;2.58;;;;;;;4.15;100.00;99909.00;7395026;19;20018;-48
2022/03/08 00:43:49;;;;;;;6.15;2.45;;;;;;;4.15;100.00;99898.75;7394275;19;20028;-47
2022/03/08 00:46:15;;;;;;;6.63;2.85;;;;;;;4.14;100.00;99890.91;7393810;19;20043;-48
2022/03/08 00:48:42;;;;;;;25.00;2.13;;;;;;;4.10;100.00;99891.00;7394160;19;20014;-48
2022/03/08 00:51:08;;;;;;;4.43;2.83;;;;;;;4.05;100.00;99894.25;7393921;19;20017;-59
2022/03/08 00:53:33;;;;;;;5.38;2.95;;;;;;;4.04;100.00;99881.72;7392911;19;20031;-59
2022/03/08 00:56:00;;;;;;;4.55;3.15;;;;;;;4.01;100.00;99888.06;7396305;19;20086;-59
2022/03/08 00:58:26;;;;;;;4.68;3.78;;;;;;;4.06;100.00;99881.25;7393371;19;20020;-59
2022/03/08 01:00:52;;;;;;;3.47;2.85;;;;;;;4.00;100.00;99878.25;7395798;19;20010;-59
2022/03/08 01:03:18;;;;;;;2.78;2.38;;;;;;;4.01;100.00;99876.25;7391745;19;20010;-59
2022/03/08 01:05:44;;;;;;;6.32;3.22;;;;;;;3.97;100.00;99870.84;7394547;19;20359;-59
2022/03/08 01:08:10;;;;;;;9.80;3.90;;;;;;;3.93;100.00;99863.88;7391720;19;20014;-59
2022/03/08 01:10:36;;;;;;;11.70;3.30;;;;;;;3.88;100.00;99867.16;7392625;19;20011;-59
2022/03/08 01:13:02;;;;;;;5.68;2.42;;;;;;;3.89;100.00;99863.19;7394022;19;20451;-59
2022/03/08 01:15:30;;;;;;;7.32;3.63;;;;;;;3.92;100.00;99860.34;7391285;19;20011;-59
2022/03/08 01:17:56;;;;;;;19.20;3.25;;;;;;;3.89;100.00;99863.97;7394023;19;20007;-59
2022/03/08 01:20:23;;;;;;;18.23;2.75;;;;;;;3.88;100.00;99861.66;7394186;19;20010;-48
2022/03/08 01:22:49;;;;;;;5.65;3.08;;;;;;;3.86;100.00;99853.81;7391008;19;20010;-47
2022/03/08 01:25:18;;;;;;;5.13;2.70;;;;;;;3.84;100.00;99851.47;7390947;19;20011;-47
2022/03/08 01:27:44;;;;;;;7.05;2.90;;;;;;;3.82;100.00;99847.59;7392152;19;20018;-48
2022/03/08 01:30:12;;;;;;;9.60;4.20;;;;;;;3.90;100.00;99843.47;7392554;19;20403;-47
2022/03/08 01:32:37;;;;;;;8.48;3.67;;;;;;;3.82;100.00;99837.38;7389796;19;20498;-59
2022/03/08 01:35:04;;;;;;;4.28;3.22;;;;;;;3.76;100.00;99830.84;7393607;19;20002;-47
2022/03/08 01:37:29;;;;;;;7.95;1.80;;;;;;;3.77;100.00;99828.81;7395463;19;20041;-48
2022/03/08 01:39:55;;;;;;;13.63;3.35;;;;;;;3.74;100.00;99824.97;7391636;19;20585;-48
2022/03/08 01:42:24;;;;;;;3.55;2.40;;;;;;;3.75;100.00;99809.22;7390517;19;20363;-48
2022/03/08 01:44:52;;;;;;;7.35;3.28;;;;;;;3.81;100.00;99802.00;7392795;19;20069;-47
2022/03/08 01:47:21;;;;;;;5.53;3.65;;;;;;;3.76;100.00;99799.75;7391207;19;20010;-48
2022/03/08 01:49:48;;;;;;;8.35;3.28;;;;;;;3.76;100.00;99802.50;7391790;19;20082;-47
2022/03/08 01:52:15;;;;;;;6.40;3.10;;;;;;;3.75;100.00;99793.47;7390536;19;20572;-47
2022/03/08 01:54:43;;;;;;;11.50;3.03;;;;;;;3.69;100.00;99795.19;7391756;19;20028;-48
2022/03/08 01:57:09;;;;;;;6.50;2.75;;;;;;;3.78;100.00;99786.31;7392498;19;20014;-47
2022/03/08 01:59:35;;;;;;;9.93;2.67;;;;;;;3.81;100.00;99779.97;7392311;19;20373;-48
2022/03/08 02:02:01;;;;;;;11.20;3.47;;;;;;;3.72;100.00;99777.81;7391589;19;20011;-47
2022/03/08 02:04:27;;;;;;;6.40;1.95;;;;;;;3.72;100.00;99772.31;7391313;19;20062;-48
2022/03/08 02:06:53;;;;;;;4.70;2.65;;;;;;;3.68;100.00;99768.84;7392809;19;20023;-47
2022/03/08 02:09:18;;;;;;;8.32;2.88;;;;;;;3.70;100.00;99773.94;7390203;19;20097;-48
2022/03/08 02:11:44;;;;;;;7.63;3.60;;;;;;;3.74;100.00;99769.13;7392760;19;20463;-48
2022/03/08 02:14:10;;;;;;;6.63;2.70;;;;;;;3.79;100.00;99746.53;7391362;19;20017;-48
2022/03/08 02:16:36;;;;;;;8.23;3.38;;;;;;;3.83;100.00;99755.53;7397115;19;20062;-47
2022/03/08 02:19:02;;;;;;;3.63;3.15;;;;;;;3.90;100.00;99752.56;7397636;19;20011;-47
2022/03/08 02:21:33;;;;;;;4.68;2.20;;;;;;;3.91;100.00;99737.59;7400698;19;20510;-59
2022/03/08 02:23:58;;;;;;;2.53;1.73;;;;;;;3.95;100.00;99738.28;7399853;19;20022;-59
2022/03/08 02:26:24;;;;;;;2.65;2.10;;;;;;;3.93;100.00;99731.66;7398117;19;20012;-59
2022/03/08 02:28:51;;;;;;;4.88;3.15;;;;;;;3.87;100.00;99736.91;7399103;19;20058;-60
2022/03/08 02:31:17;;;;;;;4.65;2.25;;;;;;;3.84;100.00;99724.78;7398966;19;20017;-59
2022/03/08 02:33:44;;;;;;;9.50;3.05;;;;;;;3.87;100.00;99720.38;7398080;19;20032;-59
2022/03/08 02:36:09;;;;;;;11.55;4.05;;;;;;;3.89;100.00;99722.69;7398830;19;20018;-59
2022/03/08 02:38:35;;;;;;;4.30;2.28;;;;;;;3.90;100.00;99719.50;7398257;19;20463;-59
2022/03/08 02:41:01;;;;;;;3.30;1.98;;;;;;;3.92;100.00;99702.56;7400680;19;20013;-59
2022/03/08 02:43:26;;;;;;;7.28;2.05;;;;;;;3.89;100.00;99693.19;7398226;19;20018;-59
2022/03/08 02:45:52;;;;;;;21.63;3.63;;;;;;;3.85;100.00;99687.00;7396552;19;20087;-59
2022/03/08 02:48:17;;;;;;;12.05;4.60;;;;;;;3.82;100.00;99682.34;7396773;19;20034;-57
2022/03/08 02:50:43;;;;;;;6.90;2.33;;;;;;;3.85;100.00;99675.97;7398623;19;20003;-59
2022/03/08 02:53:08;;;;;;;6.82;1.60;;;;;;;3.85;100.00;99676.72;7398298;19;20086;-59
2022/03/08 02:55:36;;;;;;;4.00;2.50;;;;;;;3.91;100.00;99682.50;7397411;19;20010;-59
2022/03/08 02:58:02;;;;;;;5.07;2.15;;;;;;;3.92;100.00;99678.53;7398306;19;20091;-60
2022/03/08 03:00:29;;;;;;;3.30;2.38;;;;;;;3.91;100.00;99674.25;7398441;19;20014;-59
2022/03/08 03:02:56;;;;;;;3.38;3.05;;;;;;;3.87;100.00;99662.53;7397538;19;20011;-59
2022/03/08 03:05:22;;;;;;;9.38;2.40;;;;;;;3.82;100.00;99658.34;7396708;19;20569;-58
2022/03/08 03:07:47;;;;;;;10.18;3.10;;;;;;;3.84;100.00;99664.19;7397861;19;20023;-59
2022/03/08 03:10:16;;;;;;;5.07;2.97;;;;;;;3.87;100.00;99650.75;7397532;19;20347;-59
2022/03/08 03:12:42;;;;;;;26.90;3.80;;;;;;;3.80;100.00;99651.72;7398294;19;20478;-59
2022/03/08 03:15:10;;;;;;;10.40;3.05;;;;;;;3.79;100.00;99650.16;7398518;19;20006;-60
2022/03/08 03:17:36;;;;;;;8.65;2.90;;;;;;;3.79;100.00;99634.41;7396943;19;20014;-59
2022/03/08 03:20:04;;;;;;;32.55;5.28;;;;;;;3.79;100.00;99639.13;7394929;19;20051;-59
2022/03/08 03:22:30;;;;;;;2.63;1.90;;;;;;;3.82;100.00;99638.28;7395508;19;20014;-59
2022/03/08 03:24:56;;;;;;;3.40;2.20;;;;;;;3.78;100.00;99643.13;7397768;19;20006;-59
2022/03/08 03:27:21;;;;;;;11.38;3.03;;;;;;;3.77;100.00;99630.53;7397467;19;20019;-58
2022/03/08 03:29:47;;;;;;;8.68;3.58;;;;;;;3.73;100.00;99624.34;7396290;19;20373;-59
2022/03/08 03:32:13;;;;;;;18.20;4.32;;;;;;;3.76;100.00;99629.78;7396588;19;20015;-59
2022/03/08 03:34:39;;;;;;;4.60;2.72;;;;;;;3.65;100.00;99629.31;7396928;19;20028;-59
2022/03/08 03:37:04;;;;;;;2.38;1.85;;;;;;;3.55;100.00;99621.31;7396576;19;20006;-59
2022/03/08 03:39:30;;;;;;;1.77;1.65;;;;;;;3.50;100.00;99606.09;7396606;19;20074;-59
2022/03/08 03:41:55;;;;;;;7.10;3.00;;;;;;;3.53;100.00;99621.00;7398370;19;20011;-59
2022/03/08 03:44:21;;;;;;;5.15;2.45;;;;;;;3.54;100.00;99606.00;7395754;19;20019;-48
2022/03/08 03:46:46;;;;;;;4.47;2.15;;;;;;;3.52;100.00;99608.41;7396210;19;20010;-47
2022/03/08 03:49:12;;;;;;;5.97;2.90;;;;;;;3.52;100.00;99597.41;7396896;19;20027;-48
2022/03/08 03:51:37;;;;;;;12.85;3.28;;;;;;;3.50;100.00;99594.31;7396687;19;20015;-48
2022/03/08 03:54:03;;;;;;;4.90;4.03;;;;;;;3.53;100.00;99590.72;7397425;19;20018;-47
2022/03/08 03:56:28;;;;;;;6.68;3.45;;;;;;;3.52;100.00;99580.88;7396512;19;20023;-48
2022/03/08 03:58:54;;;;;;;5.43;2.67;;;;;;;3.47;100.00;99584.94;7396695;19;20094;-47
2022/03/08 04:01:20;;;;;;;4.60;2.40;;;;;;;3.47;100.00;99575.91;7397843;19;20078;-48
2022/03/08 04:03:46;;;;;;;2.72;2.42;;;;;;;3.53;100.00;99571.44;7393782;19;20017;-47
2022/03/08 04:06:12;;;;;;;5.88;3.17;;;;;;;3.53;100.00;99569.44;7396262;19;20030;-48
2022/03/08 04:08:37;;;;;;;4.70;3.58;;;;;;;3.59;100.00;99569.69;7394376;19;20022;-47
2022/03/08 04:11:03;;;;;;;11.80;3.45;;;;;;;3.59;100.00;99561.44;7396382;19;20352;-47
2022/03/08 04:13:28;;;;;;;4.53;2.00;;;;;;;3.55;100.00;99558.00;7394883;19;20044;-48
2022/03/08 04:15:54;;;;;;;4.47;2.63;;;;;;;3.55;100.00;99566.28;7397419;19;20015;-47
2022/03/08 04:18:19;;;;;;;3.83;1.90;;;;;;;3.48;100.00;99569.22;7393748;19;20506;-48
2022/03/08 04:20:45;;;;;;;3.00;2.70;;;;;;;3.40;100.00;99574.13;7397748;19;20062;-48
2022/03/08 04:23:11;;;;;;;7.97;2.97;;;;;;;3.47;100.00;99567.66;7396065;19;20009;-47
2022/03/08 04:25:37;;;;;;;2.40;1.73;;;;;;;3.55;100.00;99563.50;7394577;19;20095;-48
2022/03/08 04:28:04;;;;;;;6.60;2.33;;;;;;;3.59;100.00;99564.97;7395203;19;20062;-47
2022/03/08 04:30:30;;;;;;;4.35;2.42;;;;;;;3.53;100.00;99569.44;7395836;19;20557;-47
2022/03/08 04:32:56;;;;;;;4.13;3.78;;;;;;;3.48;100.00;99571.97;7395333;19;20011;-47
2022/03/08 04:35:22;;;;;;;13.13;2.33;;;;;;;3.41;100.00;99569.38;7394674;19;20006;-48
2022/03/08 04:37:48;;;;;;;10.23;3.75;;;;;;;3.44;100.00;99574.81;7392328;19;20455;-47
2022/03/08 04:40:14;;;;;;;3.28;0.95;;;;;;;3.45;100.00;99568.09;7396419;19;20006;-47
2022/03/08 04:42:41;;;;;;;5.95;2.35;;;;;;;3.48;100.00;99575.50;7393788;19;20127;-47
2022/03/08 04:45:08;;;;;;;4.57;3.10;;;;;;;3.48;100.00;99569.22;7395053;19;20010;-47
2022/03/08 04:47:35;;;;;;;3.72;2.15;;;;;;;3.43;100.00;99575.22;7393356;19;20034;-48
2022/03/08 04:50:05;;;;;;;2.95;2.05;;;;;;;3.39;100.00;99571.81;7393978;19;20010;-48
2022/03/08 04:52:31;;;;;;;7.50;3.80;;;;;;;3.43;100.00;99580.75;7394274;19;20017;-48
2022/03/08 04:54:56;;;;;;;21.50;3.58;;;;;;;3.37;100.00;99586.00;7394941;19;20010;-47
2022/03/08 04:57:22;;;;;;;7.25;1.50;;;;;;;3.34;100.00;99575.06;7393206;19;20025;-48
2022/03/08 04:59:48;;;;;;;10.93;4.03;;;;;;;3.30;100.00;99582.66;7394629;19;20007;-47
2022/03/08 05:02:13;;;;;;;6.32;3.10;;;;;;;3.22;100.00;99584.06;7396136;19;20642;-47
2022/03/08 05:04:39;;;;;;;6.20;2.58;;;;;;;3.16;100.00;99580.28;7393032;19;20365;-47
2022/03/08 05:07:04;;;;;;;10.65;3.90;;;;;;;3.05;100.00;99581.31;7393865;19;20010;-47
2022/03/08 05:09:30;;;;;;;8.00;2.33;;;;;;;3.16;100.00;99574.78;7393444;19;20015;-48
2022/03/08 05:11:55;;;;;;;5.70;2.10;;;;;;;3.21;100.00;99565.97;7395063;19;20436;-47
2022/03/08 05:14:21;;;;;;;8.13;3.03;;;;;;;3.17;100.00;99568.06;7392590;19;20463;-48
2022/03/08 05:16:46;;;;;;;4.75;3.65;;;;;;;3.13;100.00;99553.63;7395496;19;20010;-48
2022/03/08 05:19:12;;;;;;;3.17;2.47;;;;;;;3.10;100.00;99554.50;7392272;19;20042;-47
2022/03/08 05:21:37;;;;;;;5.40;2.58;;;;;;;3.07;100.00;99556.88;7394086;19;20006;-47
2022/03/08 05:24:03;;;;;;;6.47;2.45;;;;;;;3.07;100.00;99548.63;7393571;19;20007;-47
2022/03/08 05:26:29;;;;;;;5.20;2.83;;;;;;;3.12;100.00;99538.34;7392821;19;20070;-48
2022/03/08 05:28:55;;;;;;;13.77;3.53;;;;;;;3.16;100.00;99547.28;7393118;19;20492;-47
2022/03/08 05:31:20;;;;;;;2.65;2.05;;;;;;;3.10;100.00;99543.50;7393608;19;20015;-48
2022/03/08 05:33:46;;;;;;;1.65;1.55;;;;;;;3.11;100.00;99536.78;7394157;19;20019;-47
2022/03/08 05:36:11;;;;;;;9.15;3.60;;;;;;;3.14;100.00;99542.19;7393337;19;20010;-47
2022/03/08 05:38:37;;;;;;;7.35;2.90;;;;;;;3.15;100.00;99535.50;7393241;19;20039;-47
2022/03/08 05:41:02;;;;;;;11.45;3.03;;;;;;;3.10;100.00;99538.00;7396122;19;20017;-47
2022/03/08 05:43:28;;;;;;;2.20;2.00;;;;;;;3.08;100.00;99530.94;7392263;19;20018;-48
2022/03/08 05:45:54;;;;;;;3.95;3.00;;;;;;;3.14;100.00;99531.19;7392201;19;20019;-47
2022/03/08 05:48:19;;;;;;;6.65;2.05;;;;;;;3.16;100.00;99531.53;7391539;19;20007;-47
2022/03/08 05:50:45;;;;;;;3.58;2.60;;;;;;;3.14;100.00;99539.44;7392833;19;20010;-47
2022/03/08 05:53:10;;;;;;;14.10;4.00;;;;;;;3.06;100.00;99529.81;7393480;19;19999;-47
2022/03/08 05:55:36;;;;;;;4.15;2.90;;;;;;;3.00;100.00;99546.09;7392154;19;20015;-47
2022/03/08 05:58:02;;;;;;;11.32;3.65;;;;;;;2.94;100.00;99542.31;7392579;19;20031;-48
2022/03/08 06:00:28;;;;;;;6.25;2.38;;;;;;;2.91;100.00;99547.91;7393337;19;20070;-48
2022/03/08 06:02:54;;;;;;;8.48;3.67;;;;;;;2.88;100.00;99549.53;7393862;19;20073;-47
2022/03/08 06:05:20;;;;;;;2.28;1.83;;;;;;;2.88;100.00;99544.03;7391683;19;20007;-47
2022/03/08 06:07:45;;;;;;;4.88;1.92;;;;;;;2.81;100.00;99544.22;7392764;19;20010;-48
2022/03/08 06:10:11;;;;;;;10.23;3.10;;;;;;;2.87;100.00;99548.00;7392707;19;20451;-47
2022/03/08 06:12:37;;;;;;;10.10;2.92;;;;;;;2.88;100.00;99537.78;7391738;19;20460;-47
2022/03/08 06:15:04;;;;;;;2.17;2.08;;;;;;;2.89;100.00;99550.31;7395525;19;20078;-47
2022/03/08 06:17:29;;;;;;;5.78;1.58;;;;;;;2.90;100.00;99552.63;7391243;19;20070;-47
2022/03/08 06:19:55;;;;;;;4.90;2.92;;;;;;;2.92;100.00;99536.44;7392633;19;20472;-47
2022/03/08 06:22:21;;;;;;;6.13;3.55;;;;;;;2.94;100.00;99536.81;7391542;19;20037;-48
2022/03/08 06:24:46;;;;;;;4.13;2.28;;;;;;;2.90;100.00;99530.63;7391949;19;20481;-47
2022/03/08 06:27:13;;;;;;;3.78;2.08;;;;;;;2.84;100.00;99521.34;7393148;19;20019;-47
2022/03/08 06:29:39;;;;;;;1.90;1.67;;;;;;;2.81;100.00;99510.44;7391194;19;20030;-47
2022/03/08 06:32:06;;;;;;;3.50;2.78;;;;;;;2.81;100.00;99505.72;7391546;19;20017;-47
2022/03/08 06:34:31;;;;;;;2.80;2.53;;;;;;;2.84;100.00;99510.34;7390984;19;20011;-47
2022/03/08 06:36:57;;;;;;;6.07;3.92;;;;;;;2.87;100.00;99504.00;7391781;19;20010;-47
2022/03/08 06:39:22;;;;;;;3.80;3.20;;;;;;;2.87;100.00;99503.22;7390640;19;20022;-48
2022/03/08 06:41:48;;;;;;;7.30;4.53;;;;;;;2.90;100.00;99502.38;7392681;19;20014;-47
2022/03/08 06:44:13;;;;;;;3.40;2.58;;;;;;;3.01;100.00;99498.13;7391204;19;20006;-47
2022/03/08 06:46:41;;;;;;;8.50;3.22;;;;;;;3.01;100.00;99500.88;7392981;19;20015;-47
2022/03/08 06:49:08;;;;;;;13.75;4.43;;;;;;;3.08;100.00;99499.91;7391810;19;20074;-47
2022/03/08 06:51:35;;;;;;;4.38;2.47;;;;;;;3.08;100.00;99502.66;7389083;19;20027;-47
2022/03/08 06:54:00;;;;;;;7.50;2.83;;;;;;;3.11;100.00;99495.53;7389014;19;20014;-47
2022/03/08 06:56:26;;;;;;;1.92;1.83;;;;;;;3.14;100.00;99500.16;7390759;19;20015;-47
2022/03/08 06:58:52;;;;;;;3.85;2.30;;;;;;;3.15;100.00;99507.19;7394150;19;20009;-47
2022/03/08 07:01:17;;;;;;;12.38;3.28;;;;;;;3.15;100.00;99490.69;7395439;19;20414;-48
2022/03/08 07:03:43;;;;;;;4.45;1.55;;;;;;;3.22;100.00;99501.50;7396711;19;20015;-47
2022/03/08 07:06:09;;;;;;;9.45;3.38;;;;;;;3.19;100.00;99491.38;7398083;19;20415;-47
2022/03/08 07:08:37;;;;;;;1.98;1.38;;;;;;;3.20;100.00;99501.19;7395328;19;20016;-47
2022/03/08 07:11:04;;;;;;;8.52;2.17;;;;;;;3.25;100.00;99511.66;7397186;19;20018;-47
2022/03/08 07:13:30;;;;;;;8.00;4.28;;;;;;;3.26;100.00;99513.97;7397305;19;20018;-47
2022/03/08 07:15:56;;;;;;;3.38;3.17;;;;;;;3.29;100.00;99513.09;7396237;19;20037;-47
2022/03/08 07:18:23;;;;;;;4.72;2.45;;;;;;;3.30;100.00;99513.88;7399528;19;20467;-48
2022/03/08 07:20:50;;;;;;;5.07;3.35;;;;;;;3.33;100.00;99515.75;7398418;19;20026;-47
2022/03/08 07:23:15;;;;;;;5.55;2.10;;;;;;;3.38;100.00;99515.22;7395200;19;20022;-47
2022/03/08 07:25:41;;;;;;;6.35;2.60;;;;;;;3.44;100.00;99519.00;7395128;19;20003;-47
2022/03/08 07:28:06;;;;;;;5.65;1.80;;;;;;;3.44;100.00;99517.03;7396608;19;20057;-47
2022/03/08 07:30:32;;;;;;;10.07;2.72;;;;;;;3.48;100.00;99508.66;7395450;19;20010;-48
2022/03/08 07:32:58;;;;;;;5.72;2.50;;;;;;;3.47;100.00;99507.88;7396038;19;20011;-47
2022/03/08 07:35:24;;;;;;;2.35;2.17;;;;;;;3.50;100.00;99501.50;7393955;19;20011;-47
2022/03/08 07:37:50;;;;;;;9.00;3.33;;;;;;;3.60;100.00;99510.66;7396282;19;20018;-47
2022/03/08 07:40:16;;;;;;;2.45;2.35;;;;;;;3.57;100.00;99506.03;7397331;19;20044;-47
2022/03/08 07:42:42;;;;;;;5.47;2.90;;;;;;;3.61;100.00;99514.97;7396634;19;20046;-47
2022/03/08 07:45:08;;;;;;;2.85;2.63;;;;;;;3.72;100.00;99512.69;7396205;19;20030;-47
2022/03/08 07:47:34;;;;;;;8.65;2.92;;;;;;;3.78;100.00;99519.19;7395550;19;20003;-48
2022/03/08 07:50:00;;;;;;;6.10;2.42;;;;;;;3.80;100.00;99525.03;7395195;19;20007;-47
2022/03/08 07:52:25;;;;;;;4.68;2.70;;;;;;;3.84;100.00;99520.19;7394819;19;20472;-47
2022/03/08 07:54:51;;;;;;;6.07;3.47;;;;;;;3.89;100.00;99522.41;7396517;19;20011;-47
2022/03/08 07:57:16;;;;;;;4.47;3.00;;;;;;;3.93;100.00;99525.81;7396082;19;20034;-47
2022/03/08 07:59:42;;;;;;;4.25;1.77;;;;;;;3.98;100.00;99519.00;7394786;19;20073;-47
2022/03/08 08:02:08;;;;;;;1.58;1.48;;;;;;;3.95;100.00;99515.13;7396633;19;20017;-47
2022/03/08 08:04:34;;;;;;;7.28;3.08;;;;;;;3.92;100.00;99516.00;7395484;19;20011;-47
2022/03/08 08:06:59;;;;;;;12.25;3.13;;;;;;;3.96;100.00;99505.69;7395256;19;20017;-47
2022/03/08 08:09:25;;;;;;;3.83;2.85;;;;;;;4.03;100.00;99508.19;7394761;19;20015;-47
2022/03/08 08:11:52;;;;;;;2.42;2.03;;;;;;;4.09;100.00;99503.69;7395013;19;20015;-47
2022/03/08 08:14:18;;;;;;;5.63;3.67;;;;;;;4.15;100.00;99499.19;7396622;19;20010;-47
2022/03/08 08:16:45;;;;;;;12.32;4.07;;;;;;;4.16;100.00;99486.94;7395694;19;20011;-47
2022/03/08 08:19:11;;;;;;;13.82;4.20;;;;;;;4.23;100.00;99485.94;7394188;19;20015;-47
2022/03/08 08:21:37;;;;;;;7.28;2.75;;;;;;;4.37;100.00;99486.28;7394587;19;22291;-47
2022/03/08 08:24:04;;;;;;;3.78;2.22;;;;;;;4.44;100.00;99488.03;7395612;19;20052;-47
2022/03/08 08:26:30;;;;;;;6.85;2.00;;;;;;;4.52;100.00;99484.59;7394719;19;20013;-47
2022/03/08 08:28:56;;;;;;;5.20;3.05;;;;;;;4.60;100.00;99483.16;7396055;19;20006;-47
2022/03/08 08:31:23;;;;;;;6.32;3.58;;;;;;;4.67;100.00;99475.84;7394111;19;20013;-48
2022/03/08 08:33:50;;;;;;;5.15;3.50;;;;;;;4.73;100.00;99476.81;7394585;19;20011;-47
2022/03/08 08:36:16;;;;;;;9.23;3.38;;;;;;;4.77;100.00;99481.00;7394098;19;20032;-47
2022/03/08 08:38:42;;;;;;;10.07;3.72;;;;;;;4.82;100.00;99476.91;7395603;19;20014;-47
2022/03/08 08:41:07;;;;;;;12.05;3.97;;;;;;;4.86;100.00;99466.53;7397090;19;20383;-47
2022/03/08 08:43:33;;;;;;;10.27;3.80;;;;;;;4.90;100.00;99467.94;7393355;19;20017;-48
2022/03/08 08:45:58;;;;;;;4.95;1.92;;;;;;;4.93;100.00;99467.06;7394422;19;20007;-59
2022/03/08 08:48:24;;;;;;;3.10;2.70;;;;;;;4.97;100.00;99461.41;7393417;19;20014;-58
2022/03/08 08:50:50;;;;;;;3.63;2.80;;;;;;;4.99;100.00;99461.75;7394761;19;20014;-59
2022/03/08 08:53:16;;;;;;;12.63;2.55;;;;;;;5.03;100.00;99456.88;7394670;19;20006;-59
2022/03/08 08:55:42;;;;;;;6.95;2.65;;;;;;;5.07;100.00;99444.50;7394877;19;20013;-59
2022/03/08 08:58:07;;;;;;;7.55;3.60;;;;;;;5.11;100.00;99449.91;7393426;19;20368;-59
2022/03/08 09:00:34;;;;;;;8.80;4.03;;;;;;;5.13;100.00;99439.19;7393777;19;20011;-59
2022/03/08 09:02:59;;;;;;;36.75;3.58;;;;;;;5.12;100.00;99454.19;7394732;19;20010;-59
2022/03/08 09:05:25;;;;;;;7.72;2.20;;;;;;;5.24;100.00;99453.38;7393457;19;20090;-59
2022/03/08 09:07:51;;;;;;;9.32;3.83;;;;;;;5.31;100.00;99458.63;7394212;19;20074;-59
2022/03/08 09:10:19;;;;;;;5.85;2.40;;;;;;;5.34;100.00;99457.72;7393709;19;20011;-59
2022/03/08 09:12:49;;;;;;;6.63;2.25;;;;;;;5.42;100.00;99477.56;7396370;19;20042;-58
2022/03/08 09:15:16;;;;;;;4.00;2.50;;;;;;;5.52;100.00;99468.13;7393875;19;20006;-58
2022/03/08 09:17:42;;;;;;;9.82;3.33;;;;;;;5.55;100.00;99469.97;7393324;19;20943;-59
2022/03/08 09:20:08;;;;;;;2.75;2.40;;;;;;;5.63;100.00;99463.72;7394098;19;20019;-59
2022/03/08 09:22:34;;;;;;;2.75;2.55;;;;;;;5.70;100.00;99462.69;7392724;19;20014;-59
2022/03/08 09:24:59;;;;;;;4.60;3.75;;;;;;;5.80;100.00;99467.84;7392406;19;20018;-59
2022/03/08 09:27:25;;;;;;;5.15;1.58;;;;;;;5.85;100.00;99458.97;7394597;19;20010;-58
2022/03/08 09:29:50;;;;;;;4.55;2.80;;;;;;;5.91;100.00;99468.22;7394402;19;20107;-59
2022/03/08 09:32:16;;;;;;;13.50;2.75;;;;;;;5.99;100.00;99457.66;7393714;19;20014;-59
2022/03/08 09:34:42;;;;;;;3.25;2.13;;;;;;;6.05;100.00;99467.69;7394100;19;20029;-59
2022/03/08 09:37:08;;;;;;;10.55;3.28;;;;;;;6.08;100.00;99444.66;7394963;19;20042;-59
2022/03/08 09:39:36;;;;;;;6.68;4.03;;;;;;;6.09;100.00;99440.66;7393369;19;20455;-59
2022/03/08 09:42:03;;;;;;;4.95;2.97;;;;;;;6.18;100.00;99436.38;7391835;19;20021;-59
2022/03/08 09:44:29;;;;;;;9.32;5.32;;;;;;;6.29;100.00;99445.03;7394230;19;20017;-58
2022/03/08 09:46:55;;;;;;;5.10;3.13;;;;;;;6.42;100.00;99442.91;7393434;19;20014;-59
2022/03/08 09:49:21;;;;;;;6.97;2.63;;;;;;;6.54;100.00;99434.47;7393275;19;20082;-58
2022/03/08 09:51:47;;;;;;;11.52;4.05;;;;;;;6.62;100.00;99434.97;7392523;19;20459;-59
2022/03/08 09:54:13;;;;;;;3.25;2.38;;;;;;;6.72;100.00;99436.50;7395175;19;20050;-59
2022/03/08 09:56:38;;;;;;;12.98;3.60;;;;;;;6.79;100.00;99425.94;7394627;19;20352;-59
2022/03/08 09:59:04;;;;;;;11.25;5.22;;;;;;;6.85;100.00;99420.53;7393568;19;20038;-59
2022/03/08 10:01:30;;;;;;;5.28;3.20;;;;;;;6.97;100.00;99429.94;7392994;19;20018;-59
2022/03/08 10:03:56;;;;;;;15.38;5.45;;;;;;;7.02;100.00;99421.75;7390671;19;20027;-48
2022/03/08 10:06:21;;;;;;;12.05;3.75;;;;;;;7.10;100.00;99416.69;7390061;19;20028;-48
2022/03/08 10:08:47;;;;;;;5.15;3.00;;;;;;;7.21;100.00;99411.47;7391999;19;20007;-48
2022/03/08 10:11:14;;;;;;;5.72;2.15;;;;;;;7.24;100.00;99414.06;7391642;19;20010;-47
2022/03/08 10:13:45;;;;;;;9.23;3.80;;;;;;;7.32;100.00;99423.59;7392744;19;20022;-48
2022/03/08 10:16:23;;;;;;;13.02;4.57;;;;;;;7.47;100.00;99418.94;7391451;19;20014;-48
2022/03/08 10:19:04;;;;;;;10.00;2.85;;;;;;;7.58;100.00;99424.00;7393283;19;20340;-48
2022/03/08 10:21:51;;;;;;;9.65;3.85;;;;;;;7.59;100.00;99420.78;7392414;19;20016;-48
2022/03/08 10:24:26;;;;;;;13.13;4.13;;;;;;;7.67;100.00;99423.97;7390424;19;20455;-48
2022/03/08 10:27:00;;;;;;;10.95;3.33;;;;;;;7.76;100.00;99407.31;7392689;19;20038;-49
2022/03/08 10:29:38;;;;;;;4.03;3.53;;;;;;;7.93;100.00;99410.47;7391001;19;20014;-48
2022/03/08 10:32:04;;;;;;;8.13;3.35;;;;;;;7.93;100.00;99413.25;7389811;19;20030;-48
2022/03/08 10:34:30;;;;;;;4.82;3.40;;;;;;;7.94;100.00;99389.84;7391312;19;20003;-59
2022/03/08 10:37:07;;;;;;;11.43;2.72;;;;;;;8.03;100.00;99392.59;7394950;19;20010;-59
2022/03/08 10:39:34;;;;;;;2.85;1.95;;;;;;;8.07;100.00;99393.19;7397881;19;20014;-48
2022/03/08 10:42:00;;;;;;;7.63;3.42;;;;;;;8.11;100.00;99383.47;7399965;19;20011;-48
2022/03/08 10:44:38;;;;;;;5.25;3.53;;;;;;;8.23;100.00;99395.56;7398028;19;20030;-48
2022/03/08 10:47:05;;;;;;;6.75;2.78;;;;;;;8.31;100.00;99386.47;7398405;19;20354;-48
2022/03/08 10:49:32;;;;;;;5.07;3.03;;;;;;;8.37;100.00;99392.13;7397828;19;20086;-59
2022/03/08 10:52:00;;;;;;;11.52;4.68;;;;;;;8.43;100.00;99381.91;7399655;19;20007;-60
2022/03/08 10:54:26;;;;;;;7.95;3.63;;;;;;;8.50;100.00;99381.56;7397726;19;20011;-59
2022/03/08 10:56:51;;;;;;;11.05;2.90;;;;;;;8.59;100.00;99384.28;7398755;19;20025;-60
2022/03/08 10:59:18;;;;;;;5.40;2.42;;;;;;;8.70;100.00;99383.72;7395550;19;20066;-59
2022/03/08 11:01:43;;;;;;;10.38;3.45;;;;;;;8.81;100.00;99383.97;7398605;19;20003;-48
2022/03/08 11:04:22;;;;;;;4.60;2.85;;;;;;;8.92;100.00;99373.81;7397969;19;20029;-48
2022/03/08 11:06:53;;;;;;;15.38;3.65;;;;;;;8.98;100.00;99382.28;7397957;19;20009;-48
2022/03/08 11:09:20;;;;;;;16.52;3.55;;;;;;;9.03;100.00;99374.03;7396765;19;20021;-48
2022/03/08 11:11:46;;;;;;;5.25;2.28;;;;;;;9.09;100.00;99363.81;7398205;19;20011;-48
2022/03/08 11:14:12;;;;;;;8.00;2.65;;;;;;;9.14;100.00;99374.25;7397256;19;20010;-48
2022/03/08 11:16:39;;;;;;;6.18;3.95;;;;;;;9.18;100.00;99369.25;7396820;19;20007;-48
2022/03/08 11:19:05;;;;;;;8.07;4.57;;;;;;;9.26;100.00;99352.22;7398344;19;20026;-48
2022/03/08 11:21:34;;;;;;;14.43;4.18;;;;;;;9.35;100.00;99354.91;7397843;19;20022;-48
2022/03/08 11:24:02;;;;;;;17.15;5.63;;;;;;;9.33;100.00;99365.72;7397144;19;20014;-48
2022/03/08 11:26:28;;;;;;;12.52;4.45;;;;;;;9.34;100.00;99361.69;7395761;19;20010;-60
2022/03/08 11:28:55;;;;;;;7.47;3.85;;;;;;;9.40;100.00;99359.81;7396973;19;20066;-59